createdAt,value
2017-09-08T00:00:14.380Z,4.80
2017-09-08T00:02:42.895Z,4.80
2017-09-08T00:05:11.344Z,4.20
2017-09-08T00:07:39.776Z,4.30
2017-09-08T00:10:08.228Z,3.73
2017-09-08T00:12:36.660Z,4.30
2017-09-08T00:15:05.212Z,4.00
2017-09-08T00:17:33.697Z,5.33
2017-09-08T00:20:02.143Z,5.20
2017-09-08T00:22:30.671Z,4.50
2017-09-08T00:25:00.736Z,4.17
2017-09-08T00:27:29.931Z,4.80
2017-09-08T00:29:58.384Z,4.70
2017-09-08T00:32:26.836Z,4.43
2017-09-08T00:34:55.320Z,5.30
2017-09-08T00:37:23.802Z,5.37
2017-09-08T00:39:52.252Z,4.93
2017-09-08T00:42:21.488Z,5.00
2017-09-08T00:44:49.959Z,4.87
2017-09-08T00:47:18.447Z,4.90
2017-09-08T00:49:46.896Z,4.80
2017-09-08T00:52:16.088Z,4.30
2017-09-08T00:54:45.295Z,4.40
2017-09-08T00:57:14.523Z,4.43
2017-09-08T00:59:42.971Z,5.20
2017-09-08T01:02:12.215Z,5.70
2017-09-08T01:04:40.654Z,4.40
2017-09-08T01:07:09.852Z,5.43
2017-09-08T01:09:39.084Z,5.47
2017-09-08T01:12:07.512Z,7.20
2017-09-08T01:14:36.048Z,6.50
2017-09-08T01:17:04.479Z,6.70
2017-09-08T01:19:33.736Z,6.47
2017-09-08T01:22:02.212Z,6.67
2017-09-08T01:24:30.813Z,6.30
2017-09-08T01:26:59.249Z,7.13
2017-09-08T01:29:28.464Z,7.97
2017-09-08T01:31:56.961Z,7.10
2017-09-08T01:34:25.427Z,7.67
2017-09-08T01:36:54.788Z,7.07
2017-09-08T01:39:23.221Z,6.80
2017-09-08T01:41:51.672Z,7.23
2017-09-08T01:44:20.862Z,7.60
2017-09-08T01:46:50.080Z,8.80
2017-09-08T01:49:19.307Z,6.60
2017-09-08T01:51:47.756Z,7.50
2017-09-08T01:54:16.984Z,8.37
2017-09-08T01:56:45.432Z,9.43
2017-09-08T01:59:14.664Z,8.10
2017-09-08T02:01:43.163Z,9.10
2017-09-08T02:04:11.628Z,8.53
2017-09-08T02:06:40.103Z,8.53
2017-09-08T02:09:08.536Z,8.47
2017-09-08T02:11:37.081Z,9.23
2017-09-08T02:14:05.566Z,8.13
2017-09-08T02:16:34.039Z,8.80
2017-09-08T02:19:02.519Z,9.27
2017-09-08T02:24:33.450Z,9.63
2017-09-08T02:27:02.684Z,10.07
2017-09-08T02:29:31.113Z,9.40
2017-09-08T02:31:59.572Z,9.60
2017-09-08T02:34:28.008Z,9.73
2017-09-08T02:36:57.225Z,9.80
2017-09-08T02:39:25.708Z,11.57
2017-09-08T02:41:54.156Z,11.70
2017-09-08T02:44:23.353Z,10.67
2017-09-08T02:46:52.587Z,10.03
2017-09-08T02:49:21.021Z,9.40
2017-09-08T02:51:49.477Z,10.17
2017-09-08T02:54:17.907Z,10.53
2017-09-08T02:56:47.227Z,10.37
2017-09-08T02:59:15.712Z,10.27
2017-09-08T03:01:44.161Z,9.30
2017-09-08T03:04:13.364Z,11.87
2017-09-08T03:06:42.696Z,11.53
2017-09-08T03:09:11.140Z,11.33
2017-09-08T03:11:40.350Z,10.60
2017-09-08T03:14:09.572Z,10.27
2017-09-08T03:16:38.055Z,11.03
2017-09-08T03:19:06.549Z,10.87
2017-09-08T03:21:34.985Z,11.80
2017-09-08T03:24:04.208Z,11.37
2017-09-08T03:26:32.699Z,10.80
2017-09-08T03:29:01.148Z,11.30
2017-09-08T03:31:30.390Z,11.17
2017-09-08T03:33:58.848Z,12.23
2017-09-08T03:36:28.073Z,11.70
2017-09-08T03:38:56.549Z,11.20
2017-09-08T03:41:24.984Z,11.43
2017-09-08T03:43:53.513Z,14.67
2017-09-08T03:46:21.992Z,11.70
2017-09-08T03:48:50.448Z,13.40
2017-09-08T03:51:19.645Z,11.80
2017-09-08T03:53:48.860Z,11.13
2017-09-08T03:56:17.351Z,11.17
2017-09-08T03:58:45.842Z,13.50
2017-09-08T04:01:14.326Z,11.83
2017-09-08T04:03:42.808Z,12.23
2017-09-08T04:06:11.280Z,12.67
2017-09-08T04:08:39.764Z,12.50
2017-09-08T04:11:08.248Z,12.13
2017-09-08T04:13:36.721Z,12.47
2017-09-08T04:16:05.151Z,14.33
2017-09-08T04:18:33.703Z,12.70
2017-09-08T04:21:02.987Z,12.93
2017-09-08T04:23:31.435Z,11.03
2017-09-08T04:26:00.641Z,12.47
2017-09-08T04:28:29.843Z,12.17
2017-09-08T04:30:59.181Z,13.13
2017-09-08T04:33:27.650Z,14.43
2017-09-08T04:35:56.090Z,13.47
2017-09-08T04:38:24.616Z,12.13
2017-09-08T04:40:53.063Z,12.57
2017-09-08T04:43:22.272Z,12.10
2017-09-08T04:45:51.487Z,13.17
2017-09-08T04:48:19.915Z,13.83
2017-09-08T04:50:48.464Z,12.67
2017-09-08T04:53:16.953Z,12.53
2017-09-08T04:55:45.416Z,11.43
2017-09-08T04:58:13.904Z,13.67
2017-09-08T05:00:42.399Z,14.10
2017-09-08T05:03:10.876Z,12.50
2017-09-08T05:05:39.332Z,11.83
2017-09-08T05:08:08.569Z,12.37
2017-09-08T05:10:37.027Z,11.50
2017-09-08T05:13:05.456Z,11.80
2017-09-08T05:15:33.899Z,11.77
2017-09-08T05:18:02.385Z,11.70
2017-09-08T05:20:30.855Z,11.57
2017-09-08T05:22:59.348Z,10.53
2017-09-08T05:25:27.830Z,11.50
2017-09-08T05:27:56.303Z,8.97
2017-09-08T05:30:24.788Z,11.87
2017-09-08T05:32:53.267Z,10.13
2017-09-08T05:35:21.767Z,12.20
2017-09-08T05:37:50.245Z,10.60
2017-09-08T05:40:18.725Z,11.63
2017-09-08T05:42:47.195Z,11.03
2017-09-08T05:45:15.629Z,10.47
2017-09-08T05:47:44.159Z,9.93
2017-09-08T05:50:12.648Z,10.63
2017-09-08T05:52:41.127Z,12.00
2017-09-08T05:55:09.607Z,10.83
2017-09-08T05:57:38.061Z,11.20
2017-09-08T06:00:07.301Z,10.20
2017-09-08T06:02:35.785Z,10.87
2017-09-08T06:05:04.263Z,11.23
2017-09-08T06:07:32.730Z,10.23
2017-09-08T06:10:01.164Z,10.70
2017-09-08T06:12:29.707Z,10.20
2017-09-08T06:14:58.165Z,11.00
2017-09-08T06:17:27.385Z,10.57
2017-09-08T06:19:55.823Z,10.80
2017-09-08T06:22:25.055Z,9.23
2017-09-08T06:24:53.548Z,10.80
2017-09-08T06:27:21.975Z,11.90
2017-09-08T06:29:50.424Z,11.43
2017-09-08T06:32:18.883Z,10.13
2017-09-08T06:34:47.385Z,11.27
2017-09-08T06:37:16.254Z,9.40
2017-09-08T06:39:44.748Z,10.23
2017-09-08T06:42:13.218Z,10.50
2017-09-08T06:44:41.675Z,10.20
2017-09-08T06:47:11.024Z,9.90
2017-09-08T06:49:39.460Z,10.00
2017-09-08T06:52:08.776Z,10.67
2017-09-08T06:54:38.097Z,10.13
2017-09-08T06:57:06.522Z,10.33
2017-09-08T06:59:35.056Z,8.70
2017-09-08T07:02:03.532Z,9.20
2017-09-08T07:04:31.988Z,10.07
2017-09-08T07:07:01.220Z,9.73
2017-09-08T07:09:29.671Z,10.10
2017-09-08T07:11:58.899Z,10.30
2017-09-08T07:14:27.353Z,8.70
2017-09-08T07:16:56.580Z,9.87
2017-09-08T07:19:25.028Z,9.20
2017-09-08T07:21:54.260Z,11.17
2017-09-08T07:24:22.744Z,9.57
2017-09-08T07:26:51.224Z,10.10
2017-09-08T07:29:19.708Z,9.03
2017-09-08T07:31:48.182Z,9.90
2017-09-08T07:34:16.643Z,7.70
2017-09-08T07:36:45.841Z,8.23
2017-09-08T07:39:15.037Z,9.57
2017-09-08T07:41:44.272Z,9.57
2017-09-08T07:44:12.698Z,8.37
2017-09-08T07:46:41.232Z,8.73
2017-09-08T07:49:09.715Z,8.40
2017-09-08T07:51:38.201Z,8.77
2017-09-08T07:54:06.627Z,7.07
2017-09-08T07:56:35.080Z,8.53
2017-09-08T07:59:03.513Z,8.70
2017-09-08T08:01:32.719Z,9.30
2017-09-08T08:04:01.912Z,8.53
2017-09-08T08:06:31.150Z,7.50
2017-09-08T08:08:59.626Z,7.40
2017-09-08T08:11:28.076Z,8.50
2017-09-08T08:13:57.275Z,9.40
2017-09-08T08:16:26.591Z,8.33
2017-09-08T08:18:55.019Z,10.43
2017-09-08T08:21:23.567Z,8.33
2017-09-08T08:23:52.059Z,8.03
2017-09-08T08:26:20.537Z,8.47
2017-09-08T08:28:48.960Z,7.37
2017-09-08T08:31:17.400Z,7.57
2017-09-08T08:33:45.836Z,8.00
2017-09-08T08:36:15.065Z,6.70
2017-09-08T08:38:43.605Z,7.20
2017-09-08T08:41:12.051Z,7.93
2017-09-08T08:43:40.508Z,6.83
2017-09-08T08:46:09.003Z,8.47
2017-09-08T08:48:37.481Z,7.90
2017-09-08T08:51:05.916Z,7.90
2017-09-08T08:53:34.444Z,9.03
2017-09-08T08:56:02.872Z,7.97
2017-09-08T08:58:31.411Z,8.20
2017-09-08T09:00:59.845Z,8.17
2017-09-08T09:03:29.064Z,7.73
2017-09-08T09:05:58.251Z,9.73
2017-09-08T09:08:27.476Z,8.53
2017-09-08T09:10:55.972Z,7.73
2017-09-08T09:13:24.455Z,8.00
2017-09-08T09:15:52.931Z,7.87
2017-09-08T09:18:21.389Z,8.50
2017-09-08T09:20:50.583Z,9.50
2017-09-08T09:23:19.804Z,6.93
2017-09-08T09:25:48.287Z,8.13
2017-09-08T09:28:16.750Z,7.77
2017-09-08T09:30:45.976Z,8.67
2017-09-08T09:33:14.456Z,9.10
2017-09-08T09:35:42.936Z,9.17
2017-09-08T09:38:11.415Z,7.30
2017-09-08T09:40:39.904Z,8.20
2017-09-08T09:43:08.352Z,9.10
2017-09-08T09:45:37.552Z,8.60
2017-09-08T09:48:06.773Z,9.80
2017-09-08T09:50:35.269Z,8.60
2017-09-08T09:53:03.695Z,7.80
2017-09-08T09:55:32.140Z,8.03
2017-09-08T09:58:00.567Z,11.90
2017-09-08T10:00:29.096Z,8.10
2017-09-08T10:02:57.579Z,10.30
2017-09-08T10:05:26.056Z,7.63
2017-09-08T10:07:54.551Z,9.13
2017-09-08T10:10:23.020Z,7.50
2017-09-08T10:12:51.448Z,7.37
2017-09-08T10:15:19.988Z,7.57
2017-09-08T10:17:48.425Z,8.20
2017-09-08T10:20:17.678Z,9.90
2017-09-08T10:22:46.139Z,8.10
2017-09-08T10:25:14.637Z,8.67
2017-09-08T10:27:43.072Z,8.60
2017-09-08T10:30:12.308Z,7.50
2017-09-08T10:32:40.740Z,8.13
2017-09-08T10:35:09.197Z,7.77
2017-09-08T10:37:37.623Z,6.90
2017-09-08T10:40:06.831Z,9.77
2017-09-08T10:42:36.042Z,7.87
2017-09-08T10:45:04.532Z,9.47
2017-09-08T10:47:32.960Z,6.73
2017-09-08T10:50:01.409Z,7.47
2017-09-08T10:52:29.873Z,8.27
2017-09-08T10:54:58.356Z,7.20
2017-09-08T10:57:26.841Z,9.57
2017-09-08T10:59:55.319Z,8.70
2017-09-08T11:02:23.800Z,6.70
2017-09-08T11:04:52.256Z,7.40
2017-09-08T11:07:21.489Z,7.60
2017-09-08T11:09:49.937Z,6.70
2017-09-08T11:12:19.476Z,7.57
2017-09-08T11:14:47.923Z,7.70
2017-09-08T11:17:17.153Z,7.43
2017-09-08T11:19:45.636Z,6.60
2017-09-08T11:22:14.132Z,8.40
2017-09-08T11:24:42.607Z,8.50
2017-09-08T11:27:11.080Z,7.77
2017-09-08T11:29:39.560Z,7.77
2017-09-08T11:32:07.988Z,8.27
2017-09-08T11:34:42.055Z,7.00
2017-09-08T11:37:10.492Z,7.40
2017-09-08T11:39:38.952Z,7.63
2017-09-08T11:42:07.387Z,6.67
2017-09-08T11:44:35.827Z,7.73
2017-09-08T11:47:05.180Z,8.23
2017-09-08T11:49:33.608Z,7.13
2017-09-08T11:52:02.148Z,6.50
2017-09-08T11:54:30.577Z,7.60
2017-09-08T11:56:59.091Z,7.57
2017-09-08T11:59:28.313Z,6.77
2017-09-08T12:01:56.759Z,7.10
2017-09-08T12:04:25.996Z,7.70
2017-09-08T12:06:54.472Z,7.33
2017-09-08T12:09:22.951Z,6.63
2017-09-08T12:11:51.445Z,7.67
2017-09-08T12:14:19.876Z,6.90
2017-09-08T12:16:49.133Z,6.83
2017-09-08T12:19:17.559Z,7.40
2017-09-08T12:21:46.781Z,6.97
2017-09-08T12:24:15.996Z,7.40
2017-09-08T12:26:44.448Z,6.43
2017-09-08T12:29:13.686Z,6.70
2017-09-08T12:31:42.166Z,7.13
2017-09-08T12:34:10.610Z,5.57
2017-09-08T12:36:39.940Z,8.50
2017-09-08T12:39:08.371Z,6.60
2017-09-08T12:41:36.819Z,8.77
2017-09-08T12:44:05.256Z,6.00
2017-09-08T12:46:34.588Z,6.67
2017-09-08T12:49:03.015Z,6.27
2017-09-08T12:51:31.552Z,7.87
2017-09-08T12:53:59.989Z,6.93
2017-09-08T12:56:28.531Z,7.13
2017-09-08T12:58:56.997Z,7.43
2017-09-08T13:01:25.480Z,7.10
2017-09-08T13:03:53.964Z,5.80
2017-09-08T13:06:22.445Z,7.30
2017-09-08T13:08:50.875Z,6.33
2017-09-08T13:11:19.323Z,8.30
2017-09-08T13:13:47.779Z,6.87
2017-09-08T13:16:16.271Z,7.60
2017-09-08T13:18:44.766Z,6.77
2017-09-08T13:21:13.217Z,5.40
2017-09-08T13:23:41.720Z,6.30
2017-09-08T13:26:10.202Z,6.33
2017-09-08T13:28:38.689Z,6.03
2017-09-08T13:31:07.164Z,5.70
2017-09-08T13:33:35.648Z,6.10
2017-09-08T13:36:05.507Z,6.70
2017-09-08T13:38:34.666Z,6.83
2017-09-08T13:41:03.145Z,6.27
2017-09-08T13:43:31.580Z,5.17
2017-09-08T13:46:00.116Z,5.87
2017-09-08T13:48:28.548Z,6.07
2017-09-08T13:50:57.781Z,4.97
2017-09-08T13:53:26.232Z,5.43
2017-09-08T13:55:55.464Z,5.80
2017-09-08T13:58:24.057Z,5.20
2017-09-08T14:00:52.496Z,6.13
2017-09-08T14:03:21.708Z,6.20
2017-09-08T14:05:50.904Z,5.53
2017-09-08T14:08:20.128Z,6.63
2017-09-08T14:10:48.616Z,4.93
2017-09-08T14:13:17.088Z,5.40
2017-09-08T14:15:45.511Z,6.17
2017-09-08T14:18:13.960Z,5.03
2017-09-08T14:20:42.392Z,5.87
2017-09-08T14:23:10.849Z,5.30
2017-09-08T14:25:39.301Z,5.90
2017-09-08T14:28:07.776Z,5.83
2017-09-08T14:30:36.209Z,5.10
2017-09-08T14:33:04.656Z,6.00
2017-09-08T14:35:33.092Z,5.53
2017-09-08T14:38:02.317Z,5.70
2017-09-08T14:40:30.749Z,5.23
2017-09-08T14:42:59.284Z,6.70
2017-09-08T14:45:27.712Z,6.43
2017-09-08T14:47:56.928Z,5.33
2017-09-08T14:50:26.129Z,6.33
2017-09-08T14:52:55.348Z,5.60
2017-09-08T14:55:23.840Z,6.73
2017-09-08T14:57:52.324Z,5.97
2017-09-08T15:00:20.752Z,5.23
2017-09-08T15:02:49.289Z,6.13
2017-09-08T15:05:17.782Z,6.27
2017-09-08T15:07:46.251Z,6.17
2017-09-08T15:10:14.736Z,5.27
2017-09-08T15:12:43.220Z,5.40
2017-09-08T15:15:11.696Z,5.80
2017-09-08T15:17:40.180Z,5.53
2017-09-08T15:20:08.680Z,6.10
2017-09-08T15:22:37.133Z,6.03
2017-09-08T15:25:05.628Z,5.67
2017-09-08T15:27:34.112Z,5.03
2017-09-08T15:30:02.547Z,6.23
2017-09-08T15:32:31.799Z,7.07
2017-09-08T15:35:00.277Z,6.50
2017-09-08T15:37:28.728Z,5.60
2017-09-08T15:39:57.952Z,5.07
2017-09-08T15:42:26.436Z,5.43
2017-09-08T15:44:54.917Z,5.60
2017-09-08T15:47:23.364Z,7.90
2017-09-08T15:49:52.560Z,6.63
2017-09-08T15:52:21.760Z,6.77
2017-09-08T15:54:50.996Z,6.90
2017-09-08T15:57:19.428Z,6.40
2017-09-08T15:59:47.876Z,6.67
2017-09-08T16:02:16.344Z,6.03
2017-09-08T16:04:44.808Z,6.97
2017-09-08T16:07:13.304Z,7.10
2017-09-08T16:09:41.784Z,6.47
2017-09-08T16:12:10.269Z,6.03
2017-09-08T16:14:38.753Z,5.97
2017-09-08T16:17:07.250Z,5.63
2017-09-08T16:19:35.815Z,6.57
2017-09-08T16:22:04.341Z,6.13
2017-09-08T16:24:32.883Z,7.17
2017-09-08T16:27:01.316Z,6.10
2017-09-08T16:29:29.854Z,7.37
2017-09-08T16:31:58.334Z,6.43
2017-09-08T16:34:26.817Z,6.87
2017-09-08T16:36:55.297Z,7.33
2017-09-08T16:39:23.772Z,6.50
2017-09-08T16:41:52.256Z,7.07
2017-09-08T16:44:20.735Z,6.97
2017-09-08T16:46:49.228Z,7.20
2017-09-08T16:49:17.715Z,6.27
2017-09-08T16:51:46.199Z,6.37
2017-09-08T16:54:14.663Z,6.63
2017-09-08T16:56:43.087Z,6.50
2017-09-08T16:59:11.628Z,6.60
2017-09-08T17:01:40.112Z,7.30
2017-09-08T17:04:08.592Z,6.93
2017-09-08T17:06:37.081Z,6.70
2017-09-08T17:09:05.559Z,6.93
2017-09-08T17:11:34.040Z,7.30
2017-09-08T17:14:02.488Z,6.57
2017-09-08T17:16:31.685Z,6.80
2017-09-08T17:19:00.909Z,6.60
2017-09-08T17:21:29.633Z,7.33
2017-09-08T17:23:58.101Z,6.97
2017-09-08T17:26:26.545Z,6.50
2017-09-08T17:28:55.972Z,8.60
2017-09-08T17:31:24.457Z,7.90
2017-09-08T17:33:52.936Z,7.73
2017-09-08T17:36:21.396Z,6.80
2017-09-08T17:38:50.616Z,7.33
2017-09-08T17:41:19.100Z,6.90
2017-09-08T17:43:47.543Z,6.90
2017-09-08T17:46:16.780Z,6.43
2017-09-08T17:48:45.253Z,7.20
2017-09-08T17:51:13.744Z,6.00
2017-09-08T17:53:42.333Z,7.77
2017-09-08T17:56:10.813Z,8.07
2017-09-08T17:58:39.294Z,8.17
2017-09-08T18:01:08.492Z,6.70
2017-09-08T18:03:36.982Z,7.60
2017-09-08T18:06:05.460Z,6.80
2017-09-08T18:08:33.892Z,8.67
2017-09-08T18:11:02.433Z,8.17
2017-09-08T18:13:30.873Z,6.93
2017-09-08T18:16:00.115Z,7.60
2017-09-08T18:18:28.579Z,11.00
2017-09-08T18:20:57.037Z,6.70
2017-09-08T18:23:26.268Z,8.37
2017-09-08T18:25:54.725Z,6.63
2017-09-08T18:28:23.235Z,7.97
2017-09-08T18:30:51.708Z,6.73
2017-09-08T18:33:20.196Z,6.83
2017-09-08T18:35:48.644Z,6.73
2017-09-08T18:38:17.844Z,7.43
2017-09-08T18:40:47.172Z,6.50
2017-09-08T18:43:15.655Z,7.50
2017-09-08T18:45:44.140Z,8.03
2017-09-08T18:48:12.624Z,7.00
2017-09-08T18:50:41.099Z,7.43
2017-09-08T18:53:09.537Z,7.23
2017-09-08T18:55:38.068Z,7.03
2017-09-08T18:58:06.505Z,7.70
2017-09-08T19:00:35.028Z,6.90
2017-09-08T19:03:03.463Z,6.87
2017-09-08T19:05:31.925Z,7.47
2017-09-08T19:08:00.393Z,6.60
2017-09-08T19:10:28.980Z,6.10
2017-09-08T19:12:57.416Z,7.00
2017-09-08T19:15:26.701Z,7.70
2017-09-08T19:17:55.989Z,7.20
2017-09-08T19:20:24.421Z,6.73
2017-09-08T19:22:52.876Z,8.77
2017-09-08T19:25:22.107Z,6.50
2017-09-08T19:27:50.560Z,6.77
2017-09-08T19:30:19.784Z,6.83
2017-09-08T19:32:48.237Z,7.57
2017-09-08T19:35:17.455Z,7.83
2017-09-08T19:37:45.951Z,6.40
2017-09-08T19:40:14.437Z,6.30
2017-09-08T19:42:42.908Z,6.97
2017-09-08T19:45:11.335Z,7.20
2017-09-08T19:47:39.784Z,6.47
2017-09-08T19:50:08.231Z,6.17
2017-09-08T19:52:36.688Z,7.70
2017-09-08T19:55:05.218Z,6.63
2017-09-08T19:57:33.678Z,8.30
2017-09-08T20:00:02.898Z,6.43
2017-09-08T20:02:31.346Z,6.63
2017-09-08T20:05:00.588Z,6.73
2017-09-08T20:07:29.034Z,7.40
2017-09-08T20:09:58.266Z,7.20
2017-09-08T20:12:26.750Z,6.53
2017-09-08T20:14:55.196Z,6.30
2017-09-08T20:17:24.513Z,7.67
2017-09-08T20:19:52.940Z,6.13
2017-09-08T20:22:21.389Z,6.40
2017-09-08T20:24:49.819Z,6.53
2017-09-08T20:27:18.349Z,6.13
2017-09-08T20:29:46.836Z,7.70
2017-09-08T20:32:15.284Z,6.73
2017-09-08T20:34:44.512Z,7.00
2017-09-08T20:37:12.959Z,6.00
2017-09-08T20:39:42.191Z,5.70
2017-09-08T20:42:10.680Z,6.10
2017-09-08T20:44:39.160Z,5.97
2017-09-08T20:47:07.642Z,7.13
2017-09-08T20:49:36.068Z,6.60
2017-09-08T20:52:04.597Z,5.93
2017-09-08T20:54:33.025Z,5.97
2017-09-08T20:57:01.569Z,7.00
2017-09-08T20:59:30.052Z,6.80
2017-09-08T21:01:58.520Z,6.70
2017-09-08T21:04:27.022Z,6.80
2017-09-08T21:06:55.496Z,8.10
2017-09-08T21:09:23.924Z,7.23
2017-09-08T21:11:52.371Z,6.90
2017-09-08T21:14:20.797Z,6.77
2017-09-08T21:16:50.025Z,7.43
2017-09-08T21:19:18.461Z,5.40
2017-09-08T21:21:46.999Z,7.57
2017-09-08T21:24:15.448Z,6.50
2017-09-08T21:26:44.684Z,7.63
2017-09-08T21:29:13.164Z,5.10
2017-09-08T21:31:41.648Z,6.97
2017-09-08T21:34:10.096Z,6.40
2017-09-08T21:36:39.292Z,5.93
2017-09-08T21:39:08.516Z,6.00
2017-09-08T21:41:36.940Z,5.63
2017-09-08T21:44:05.383Z,5.73
2017-09-08T21:46:33.874Z,5.60
2017-09-08T21:49:02.353Z,6.40
2017-09-08T21:51:30.795Z,5.73
2017-09-08T21:54:00.046Z,5.57
2017-09-08T21:56:28.469Z,6.90
2017-09-08T21:58:56.912Z,5.30
2017-09-08T22:01:25.352Z,6.73
2017-09-08T22:03:54.564Z,6.60
2017-09-08T22:06:23.060Z,7.00
2017-09-08T22:08:51.540Z,7.07
2017-09-08T22:11:19.968Z,7.00
2017-09-08T22:13:48.402Z,5.07
2017-09-08T22:16:16.884Z,6.60
2017-09-08T22:18:45.332Z,6.07
2017-09-08T22:21:14.523Z,5.53
2017-09-08T22:23:43.765Z,6.33
2017-09-08T22:26:12.244Z,6.93
2017-09-08T22:28:40.692Z,5.03
2017-09-08T22:31:09.926Z,6.40
2017-09-08T22:33:38.418Z,6.40
2017-09-08T22:36:06.888Z,5.70
2017-09-08T22:38:35.344Z,5.60
2017-09-08T22:41:04.567Z,5.87
2017-09-08T22:43:33.007Z,6.40
2017-09-08T22:46:01.436Z,5.47
2017-09-08T22:48:29.917Z,5.40
2017-09-08T22:50:58.348Z,6.27
2017-09-08T22:53:26.796Z,5.77
2017-09-08T22:55:55.871Z,5.77
2017-09-08T22:58:24.324Z,6.77
2017-09-08T23:00:53.556Z,6.30
2017-09-08T23:03:22.005Z,7.20
2017-09-08T23:05:51.241Z,6.37
2017-09-08T23:08:19.713Z,6.30
2017-09-08T23:10:48.140Z,6.13
2017-09-08T23:13:16.590Z,6.10
2017-09-08T23:15:45.064Z,6.30
2017-09-08T23:18:13.503Z,7.07
2017-09-08T23:20:42.693Z,5.93
2017-09-08T23:23:11.140Z,6.50
2017-09-08T23:25:39.604Z,6.67
2017-09-08T23:28:08.085Z,6.00
2017-09-08T23:30:36.567Z,7.10
2017-09-08T23:33:05.047Z,6.27
2017-09-08T23:35:33.525Z,6.47
2017-09-08T23:38:01.949Z,6.03
2017-09-08T23:40:30.492Z,6.63
2017-09-08T23:42:58.980Z,6.83
2017-09-08T23:45:27.473Z,5.93
2017-09-08T23:47:55.900Z,5.87
2017-09-08T23:50:25.141Z,6.27
2017-09-08T23:52:53.621Z,5.70
2017-09-08T23:55:22.073Z,6.47
2017-09-08T23:57:51.304Z,5.70
